createdAt,value
2017-02-06T00:00:12.269Z,0
2017-02-06T00:01:12.289Z,0
2017-02-06T00:02:12.328Z,0
2017-02-06T00:03:11.955Z,0
2017-02-06T00:04:12.224Z,0
2017-02-06T00:05:12.395Z,0
2017-02-06T00:06:12.426Z,0
2017-02-06T00:07:12.071Z,0
2017-02-06T00:08:12.484Z,0
2017-02-06T00:09:12.769Z,0
2017-02-06T00:10:12.534Z,0
2017-02-06T00:11:12.570Z,0
2017-02-06T00:12:12.195Z,0
2017-02-06T00:13:11.828Z,0
2017-02-06T00:14:12.892Z,0
2017-02-06T00:15:12.673Z,0
2017-02-06T00:16:11.902Z,0
2017-02-06T00:17:12.720Z,0
2017-02-06T00:18:11.975Z,0
2017-02-06T00:19:13.028Z,0
2017-02-06T00:20:12.447Z,0
2017-02-06T00:21:12.837Z,0
2017-02-06T00:22:12.463Z,0
2017-02-06T00:23:12.891Z,0
2017-02-06T00:24:12.776Z,0
2017-02-06T00:25:12.801Z,0
2017-02-06T00:26:12.188Z,0
2017-02-06T00:27:11.811Z,0
2017-02-06T00:28:13.463Z,0
2017-02-06T00:29:13.047Z,0
2017-02-06T00:30:13.732Z,0
2017-02-06T00:31:12.708Z,0
2017-02-06T00:32:12.339Z,0
2017-02-06T00:33:12.770Z,0
2017-02-06T00:34:12.794Z,0
2017-02-06T00:35:13.096Z,0
2017-02-06T00:36:12.841Z,0
2017-02-06T00:37:12.867Z,0
2017-02-06T00:38:13.694Z,0
2017-02-06T00:39:13.731Z,0
2017-02-06T00:40:13.206Z,0
2017-02-06T00:41:13.772Z,0
2017-02-06T00:42:13.013Z,0
2017-02-06T00:43:13.436Z,0
2017-02-06T00:44:13.879Z,0
2017-02-06T00:45:12.948Z,0
2017-02-06T00:46:13.119Z,0
2017-02-06T00:47:13.538Z,0
2017-02-06T00:48:13.569Z,0
2017-02-06T00:49:13.190Z,0
2017-02-06T00:50:13.870Z,0
2017-02-06T00:51:12.450Z,0
2017-02-06T00:52:14.072Z,0
2017-02-06T00:53:13.312Z,0
2017-02-06T00:54:12.937Z,0
2017-02-06T00:55:13.208Z,0
2017-02-06T00:56:13.391Z,0
2017-02-06T00:57:13.800Z,0
2017-02-06T00:58:13.436Z,0
2017-02-06T00:59:13.861Z,0
2017-02-06T01:00:13.737Z,0
2017-02-06T01:01:13.126Z,0
2017-02-06T01:02:13.548Z,0
2017-02-06T01:03:13.579Z,0
2017-02-06T01:04:13.605Z,0
2017-02-06T01:05:13.877Z,0
2017-02-06T01:06:13.263Z,0
2017-02-06T01:07:14.472Z,0
2017-02-06T01:08:14.508Z,0
2017-02-06T01:09:14.129Z,0
2017-02-06T01:10:14.409Z,0
2017-02-06T01:11:13.003Z,0
2017-02-06T01:12:14.214Z,0
2017-02-06T01:13:14.244Z,0
2017-02-06T01:14:14.275Z,0
2017-02-06T01:15:14.400Z,0
2017-02-06T01:16:13.533Z,0
2017-02-06T01:17:14.377Z,0
2017-02-06T01:18:14.373Z,0
2017-02-06T01:19:14.003Z,0
2017-02-06T01:20:13.494Z,0
2017-02-06T01:21:13.911Z,0
2017-02-06T01:22:14.089Z,0
2017-02-06T01:23:14.110Z,0
2017-02-06T01:24:14.135Z,0
2017-02-06T01:25:14.563Z,0
2017-02-06T01:26:14.844Z,0
2017-02-06T01:27:14.625Z,0
2017-02-06T01:28:14.246Z,0
2017-02-06T01:29:14.681Z,0
2017-02-06T01:30:15.114Z,0
2017-02-06T01:31:14.977Z,0
2017-02-06T01:32:14.361Z,0
2017-02-06T01:33:13.993Z,0
2017-02-06T01:34:14.806Z,0
2017-02-06T01:35:14.835Z,0
2017-02-06T01:36:14.327Z,0
2017-02-06T01:37:14.888Z,0
2017-02-06T01:38:14.528Z,0
2017-02-06T01:39:14.145Z,0
2017-02-06T01:40:14.574Z,0
2017-02-06T01:41:14.847Z,0
2017-02-06T01:42:14.224Z,0
2017-02-06T01:43:14.257Z,0
2017-02-06T01:44:14.673Z,0
2017-02-06T01:45:15.099Z,0
2017-02-06T01:46:15.786Z,0
2017-02-06T01:47:15.554Z,0
2017-02-06T01:48:13.987Z,0
2017-02-06T01:49:14.407Z,0
2017-02-06T01:50:14.835Z,0
2017-02-06T01:51:15.122Z,0
2017-02-06T01:52:15.293Z,0
2017-02-06T01:53:15.327Z,0
2017-02-06T01:54:15.347Z,0
2017-02-06T01:55:14.977Z,0
2017-02-06T01:56:15.496Z,0
2017-02-06T01:57:15.028Z,0
2017-02-06T01:58:15.460Z,0
2017-02-06T01:59:15.079Z,0
2017-02-06T02:00:14.702Z,0
2017-02-06T02:01:15.384Z,0
2017-02-06T02:02:15.561Z,0
2017-02-06T02:03:15.189Z,0
2017-02-06T02:04:15.213Z,0
2017-02-06T02:05:16.027Z,0
2017-02-06T02:06:15.924Z,0
2017-02-06T02:07:15.284Z,0
2017-02-06T02:08:16.113Z,0
2017-02-06T02:09:15.342Z,0
2017-02-06T02:10:14.974Z,0
2017-02-06T02:11:16.447Z,0
2017-02-06T02:12:15.426Z,0
2017-02-06T02:13:15.849Z,0
2017-02-06T02:14:15.486Z,0
2017-02-06T02:15:15.510Z,0
2017-02-06T02:16:16.182Z,0
2017-02-06T02:17:15.819Z,0
2017-02-06T02:18:15.192Z,0
2017-02-06T02:19:15.616Z,0
2017-02-06T02:20:16.439Z,0
2017-02-06T02:21:15.673Z,0
2017-02-06T02:22:15.947Z,0
2017-02-06T02:23:15.728Z,0
2017-02-06T02:24:16.151Z,0
2017-02-06T02:25:16.161Z,0
2017-02-06T02:26:15.405Z,0
2017-02-06T02:27:16.478Z,0
2017-02-06T02:28:16.254Z,0
2017-02-06T02:29:16.275Z,0
2017-02-06T02:30:15.913Z,0
2017-02-06T02:31:16.336Z,0
2017-02-06T02:32:17.015Z,0
2017-02-06T02:33:16.386Z,0
2017-02-06T02:34:16.407Z,0
2017-02-06T02:35:16.453Z,0
2017-02-06T02:36:16.093Z,0
2017-02-06T02:37:16.753Z,0
2017-02-06T02:38:16.134Z,0
2017-02-06T02:39:15.367Z,0
2017-02-06T02:40:16.180Z,0
2017-02-06T02:41:16.601Z,0
2017-02-06T02:42:16.090Z,0
2017-02-06T02:43:17.067Z,0
2017-02-06T02:44:16.675Z,0
2017-02-06T02:45:16.723Z,0
2017-02-06T02:46:16.348Z,0
2017-02-06T02:47:15.869Z,0
2017-02-06T02:48:16.832Z,0
2017-02-06T02:49:16.054Z,0
2017-02-06T02:50:16.846Z,0
2017-02-06T02:51:17.265Z,0
2017-02-06T02:52:17.194Z,0
2017-02-06T02:53:16.930Z,0
2017-02-06T02:54:16.159Z,0
2017-02-06T02:55:16.591Z,0
2017-02-06T02:56:17.400Z,0
2017-02-06T02:57:16.889Z,0
2017-02-06T02:58:16.654Z,0
2017-02-06T02:59:17.078Z,0
2017-02-06T03:00:16.324Z,0
2017-02-06T03:01:17.140Z,0
2017-02-06T03:02:16.633Z,0
2017-02-06T03:03:17.189Z,0
2017-02-06T03:04:16.437Z,0
2017-02-06T03:05:16.838Z,0
2017-02-06T03:06:17.672Z,0
2017-02-06T03:07:17.409Z,0
2017-02-06T03:08:17.326Z,0
2017-02-06T03:09:17.746Z,0
2017-02-06T03:10:17.775Z,0
2017-02-06T03:11:17.403Z,0
2017-02-06T03:12:18.611Z,0
2017-02-06T03:13:16.263Z,0
2017-02-06T03:14:16.701Z,0
2017-02-06T03:15:17.118Z,0
2017-02-06T03:16:17.142Z,0
2017-02-06T03:17:18.206Z,0
2017-02-06T03:18:17.052Z,0
2017-02-06T03:19:16.829Z,0
2017-02-06T03:20:17.247Z,0
2017-02-06T03:21:17.670Z,0
2017-02-06T03:22:17.295Z,0
2017-02-06T03:23:17.612Z,0
2017-02-06T03:24:17.364Z,0
2017-02-06T03:25:16.585Z,0
2017-02-06T03:26:17.014Z,0
2017-02-06T03:27:17.831Z,0
2017-02-06T03:28:18.116Z,0
2017-02-06T03:29:17.892Z,0
2017-02-06T03:30:17.913Z,0
2017-02-06T03:31:17.937Z,0
2017-02-06T03:32:18.370Z,0
2017-02-06T03:33:17.855Z,0
2017-02-06T03:34:17.627Z,0
2017-02-06T03:35:17.697Z,0
2017-02-06T03:36:17.285Z,0
2017-02-06T03:37:18.495Z,0
2017-02-06T03:38:18.235Z,0
2017-02-06T03:39:18.548Z,0
2017-02-06T03:40:17.781Z,0
2017-02-06T03:41:17.812Z,0
2017-02-06T03:42:17.842Z,0
2017-02-06T03:43:17.723Z,0
2017-02-06T03:44:18.696Z,0
2017-02-06T03:45:17.163Z,0
2017-02-06T03:46:17.952Z,0
2017-02-06T03:47:18.766Z,0
2017-02-06T03:48:18.299Z,0
2017-02-06T03:49:18.028Z,0
2017-02-06T03:50:18.047Z,0
2017-02-06T03:51:18.079Z,0
2017-02-06T03:52:18.104Z,0
2017-02-06T03:53:18.384Z,0
2017-02-06T03:54:17.762Z,0
2017-02-06T03:55:18.190Z,0
2017-02-06T03:56:17.820Z,0
2017-02-06T03:57:18.640Z,0
2017-02-06T03:58:18.905Z,0
2017-02-06T03:59:18.302Z,0
2017-02-06T04:00:18.309Z,0
2017-02-06T04:01:17.949Z,0
2017-02-06T04:02:19.163Z,0
2017-02-06T04:03:18.245Z,0
2017-02-06T04:04:18.022Z,0
2017-02-06T04:05:19.253Z,0
2017-02-06T04:06:18.483Z,0
2017-02-06T04:07:18.108Z,0
2017-02-06T04:08:19.425Z,0
2017-02-06T04:09:18.165Z,0
2017-02-06T04:10:18.585Z,0
2017-02-06T04:11:18.621Z,0
2017-02-06T04:12:18.240Z,0
2017-02-06T04:13:18.520Z,0
2017-02-06T04:14:19.742Z,0
2017-02-06T04:15:19.113Z,0
2017-02-06T04:16:19.174Z,0
2017-02-06T04:17:17.974Z,0
2017-02-06T04:18:18.015Z,0
2017-02-06T04:19:19.335Z,0
2017-02-06T04:20:19.252Z,0
2017-02-06T04:21:19.317Z,0
2017-02-06T04:22:18.903Z,0
2017-02-06T04:23:18.930Z,0
2017-02-06T04:24:19.590Z,0
2017-02-06T04:25:19.781Z,0
2017-02-06T04:26:19.805Z,0
2017-02-06T04:27:19.438Z,0
2017-02-06T04:28:19.845Z,0
2017-02-06T04:29:19.736Z,0
2017-02-06T04:30:19.513Z,0
2017-02-06T04:31:19.146Z,0
2017-02-06T04:32:19.170Z,0
2017-02-06T04:33:19.591Z,0
2017-02-06T04:34:19.867Z,0
2017-02-06T04:35:19.243Z,0
2017-02-06T04:36:19.283Z,0
2017-02-06T04:37:20.103Z,0
2017-02-06T04:38:19.326Z,0
2017-02-06T04:39:20.254Z,0
2017-02-06T04:40:19.380Z,0
2017-02-06T04:41:19.409Z,0
2017-02-06T04:42:19.824Z,0
2017-02-06T04:43:20.262Z,0
2017-02-06T04:44:20.537Z,0
2017-02-06T04:45:20.565Z,0
2017-02-06T04:46:19.940Z,0
2017-02-06T04:47:19.169Z,0
2017-02-06T04:48:19.594Z,0
2017-02-06T04:49:19.625Z,0
2017-02-06T04:50:19.911Z,0
2017-02-06T04:51:20.112Z,0
2017-02-06T04:52:20.105Z,0
2017-02-06T04:53:20.126Z,0
2017-02-06T04:54:19.366Z,0
2017-02-06T04:55:20.430Z,0
2017-02-06T04:56:20.211Z,0
2017-02-06T04:57:19.831Z,0
2017-02-06T04:58:19.868Z,0
2017-02-06T04:59:19.885Z,0
2017-02-06T05:00:20.159Z,0
2017-02-06T05:01:20.723Z,0
2017-02-06T05:02:20.759Z,0
2017-02-06T05:03:20.389Z,0
2017-02-06T05:04:19.617Z,0
2017-02-06T05:05:19.754Z,0
2017-02-06T05:06:20.069Z,0
2017-02-06T05:07:20.498Z,0
2017-02-06T05:08:20.131Z,0
2017-02-06T05:09:20.161Z,0
2017-02-06T05:10:20.434Z,0
2017-02-06T05:11:20.995Z,0
2017-02-06T05:12:20.235Z,0
2017-02-06T05:13:19.860Z,0
2017-02-06T05:14:20.684Z,0
2017-02-06T05:15:20.563Z,0
2017-02-06T05:16:20.342Z,0
2017-02-06T05:17:21.162Z,0
2017-02-06T05:18:20.400Z,0
2017-02-06T05:19:21.217Z,0
2017-02-06T05:20:21.097Z,0
2017-02-06T05:21:20.479Z,0
2017-02-06T05:22:20.898Z,0
2017-02-06T05:23:20.523Z,0
2017-02-06T05:24:20.148Z,0
2017-02-06T05:25:21.233Z,0
2017-02-06T05:26:20.604Z,0
2017-02-06T05:27:21.026Z,0
2017-02-06T05:28:20.660Z,0
2017-02-06T05:29:21.085Z,0
2017-02-06T05:30:21.222Z,0
2017-02-06T05:31:20.341Z,0
2017-02-06T05:32:20.763Z,0
2017-02-06T05:33:20.796Z,0
2017-02-06T05:34:21.607Z,0
2017-02-06T05:35:20.700Z,0
2017-02-06T05:36:21.122Z,0
2017-02-06T05:37:20.503Z,0
2017-02-06T05:38:20.936Z,0
2017-02-06T05:39:21.345Z,0
2017-02-06T05:40:20.981Z,0
2017-02-06T05:41:21.652Z,0
2017-02-06T05:42:21.034Z,0
2017-02-06T05:43:21.459Z,0
2017-02-06T05:44:21.476Z,0
2017-02-06T05:45:21.117Z,0
2017-02-06T05:46:20.988Z,0
2017-02-06T05:47:21.566Z,0
2017-02-06T05:48:21.584Z,0
2017-02-06T05:49:21.616Z,0
2017-02-06T05:50:21.243Z,0
2017-02-06T05:51:22.365Z,0
2017-02-06T05:52:20.938Z,0
2017-02-06T05:53:21.327Z,0
2017-02-06T05:54:21.752Z,0
2017-02-06T05:55:21.376Z,0
2017-02-06T05:56:21.262Z,0
2017-02-06T05:57:21.830Z,0
2017-02-06T05:58:21.853Z,0
2017-02-06T05:59:21.495Z,0
2017-02-06T06:00:22.290Z,0
2017-02-06T06:01:22.185Z,0
2017-02-06T06:02:21.566Z,0
2017-02-06T06:03:22.391Z,0
2017-02-06T06:04:21.228Z,0
2017-02-06T06:05:22.045Z,0
2017-02-06T06:06:21.924Z,0
2017-02-06T06:07:22.102Z,0
2017-02-06T06:08:22.519Z,0
2017-02-06T06:09:22.152Z,0
2017-02-06T06:10:22.177Z,0
2017-02-06T06:11:22.501Z,0
2017-02-06T06:12:22.228Z,0
2017-02-06T06:13:21.854Z,0
2017-02-06T06:14:21.491Z,0
2017-02-06T06:15:22.708Z,0
2017-02-06T06:16:21.797Z,0
2017-02-06T06:17:21.973Z,0
2017-02-06T06:18:22.391Z,0
2017-02-06T06:19:22.820Z,0
2017-02-06T06:20:22.438Z,0
2017-02-06T06:21:23.377Z,0
2017-02-06T06:22:22.502Z,0
2017-02-06T06:23:22.125Z,0
2017-02-06T06:24:22.950Z,0
2017-02-06T06:25:22.183Z,0
2017-02-06T06:26:22.112Z,0
2017-02-06T06:27:23.030Z,0
2017-02-06T06:28:22.258Z,0
2017-02-06T06:29:23.114Z,0
2017-02-06T06:30:23.104Z,0
2017-02-06T06:31:22.989Z,0
2017-02-06T06:32:22.768Z,0
2017-02-06T06:33:22.789Z,0
2017-02-06T06:34:23.227Z,0
2017-02-06T06:35:22.839Z,0
2017-02-06T06:36:22.727Z,0
2017-02-06T06:37:22.509Z,0
2017-02-06T06:38:22.534Z,0
2017-02-06T06:39:22.164Z,0
2017-02-06T06:40:23.376Z,0
2017-02-06T06:41:23.256Z,0
2017-02-06T06:42:22.647Z,0
2017-02-06T06:43:23.066Z,0
2017-02-06T06:44:22.702Z,0
2017-02-06T06:45:23.518Z,0
2017-02-06T06:46:23.004Z,0
2017-02-06T06:47:23.022Z,0
2017-02-06T06:48:22.802Z,0
2017-02-06T06:49:23.229Z,0
2017-02-06T06:50:23.643Z,0
2017-02-06T06:51:23.670Z,0
2017-02-06T06:52:23.807Z,0
2017-02-06T06:53:22.540Z,0
2017-02-06T06:54:22.964Z,0
2017-02-06T06:55:23.391Z,0
2017-02-06T06:56:23.024Z,0
2017-02-06T06:57:23.700Z,0
2017-02-06T06:58:23.069Z,0
2017-02-06T06:59:22.701Z,0
2017-02-06T07:00:23.522Z,0
2017-02-06T07:01:23.545Z,0
2017-02-06T07:02:23.691Z,0
2017-02-06T07:03:23.610Z,0
2017-02-06T07:04:23.623Z,0
2017-02-06T07:05:23.667Z,0
2017-02-06T07:06:24.087Z,0
2017-02-06T07:07:23.163Z,0
2017-02-06T07:08:23.597Z,0
2017-02-06T07:09:23.766Z,0
2017-02-06T07:10:23.398Z,0
2017-02-06T07:11:23.423Z,0
2017-02-06T07:12:23.843Z,0
2017-02-06T07:13:23.729Z,0
2017-02-06T07:14:24.302Z,0
2017-02-06T07:15:23.921Z,0
2017-02-06T07:16:22.762Z,0
2017-02-06T07:17:23.587Z,0
2017-02-06T07:18:23.863Z,0
2017-02-06T07:19:24.033Z,0
2017-02-06T07:20:23.669Z,0
2017-02-06T07:21:24.134Z,0
2017-02-06T07:22:23.751Z,0
2017-02-06T07:23:24.396Z,0
2017-02-06T07:24:24.565Z,0
2017-02-06T07:25:24.594Z,0
2017-02-06T07:26:23.434Z,0
2017-02-06T07:27:23.455Z,0
2017-02-06T07:28:23.735Z,0
2017-02-06T07:29:23.520Z,0
2017-02-06T07:30:24.337Z,0
2017-02-06T07:31:23.966Z,0
2017-02-06T07:32:23.199Z,0
2017-02-06T07:33:24.668Z,0
2017-02-06T07:34:24.448Z,0
2017-02-06T07:35:24.864Z,0
2017-02-06T07:36:24.497Z,0
2017-02-06T07:37:24.527Z,0
2017-02-06T07:38:24.806Z,0
2017-02-06T07:39:24.192Z,0
2017-02-06T07:40:24.212Z,0
2017-02-06T07:41:23.441Z,5
2017-02-06T07:42:24.262Z,5
2017-02-06T07:43:24.542Z,5
2017-02-06T07:44:24.716Z,5
2017-02-06T07:45:24.749Z,5
2017-02-06T07:46:25.160Z,5
2017-02-06T07:47:24.790Z,5
2017-02-06T07:48:25.469Z,5
2017-02-06T07:49:24.459Z,5
2017-02-06T07:50:24.876Z,5
2017-02-06T07:51:24.900Z,5
2017-02-06T07:52:25.317Z,5
2017-02-06T07:53:24.813Z,5
2017-02-06T07:54:24.594Z,5
2017-02-06T07:55:25.407Z,5
2017-02-06T07:56:25.424Z,5
2017-02-06T07:57:25.065Z,5
2017-02-06T07:58:25.341Z,5
2017-02-06T07:59:25.121Z,5
2017-02-06T08:00:23.959Z,5
2017-02-06T08:01:24.776Z,5
2017-02-06T08:02:24.805Z,10
2017-02-06T08:03:25.081Z,10
2017-02-06T08:04:25.250Z,10
2017-02-06T08:05:25.667Z,10
2017-02-06T08:06:24.912Z,10
2017-02-06T08:07:25.327Z,15
2017-02-06T08:08:24.821Z,15
2017-02-06T08:09:24.985Z,15
2017-02-06T08:10:25.019Z,20
2017-02-06T08:11:25.039Z,20
2017-02-06T08:12:24.687Z,25
2017-02-06T08:13:25.740Z,30
2017-02-06T08:14:25.525Z,35
2017-02-06T08:15:25.546Z,35
2017-02-06T08:16:24.793Z,40
2017-02-06T08:17:25.991Z,45
2017-02-06T08:18:25.732Z,45
2017-02-06T08:19:24.869Z,40
2017-02-06T08:20:26.078Z,35
2017-02-06T08:21:25.317Z,35
2017-02-06T08:22:25.347Z,35
2017-02-06T08:23:25.363Z,35
2017-02-06T08:24:26.048Z,35
2017-02-06T08:25:25.426Z,35
2017-02-06T08:26:25.842Z,40
2017-02-06T08:27:25.875Z,40
2017-02-06T08:28:25.904Z,40
2017-02-06T08:29:25.792Z,40
2017-02-06T08:30:25.553Z,45
2017-02-06T08:31:25.189Z,45
2017-02-06T08:32:25.222Z,45
2017-02-06T08:33:25.643Z,45
2017-02-06T08:34:26.357Z,50
2017-02-06T08:35:25.301Z,50
2017-02-06T08:36:25.719Z,50
2017-02-06T08:37:25.750Z,50
2017-02-06T08:38:26.162Z,50
2017-02-06T08:39:26.842Z,50
2017-02-06T08:40:25.445Z,50
2017-02-06T08:41:25.861Z,50
2017-02-06T08:42:26.294Z,50
2017-02-06T08:43:25.913Z,50
2017-02-06T08:44:26.191Z,50
2017-02-06T08:45:25.960Z,50
2017-02-06T08:46:26.001Z,50
2017-02-06T08:47:26.430Z,50
2017-02-06T08:48:26.846Z,50
2017-02-06T08:49:26.334Z,50
2017-02-06T08:50:26.498Z,50
2017-02-06T08:51:26.143Z,45
2017-02-06T08:52:26.567Z,45
2017-02-06T08:53:25.827Z,45
2017-02-06T08:54:26.723Z,45
2017-02-06T08:55:26.242Z,45
2017-02-06T08:56:26.280Z,45
2017-02-06T08:57:26.691Z,45
2017-02-06T08:58:26.725Z,45
2017-02-06T08:59:27.409Z,50
2017-02-06T09:00:26.781Z,50
2017-02-06T09:01:26.410Z,50
2017-02-06T09:02:26.836Z,50
2017-02-06T09:03:26.865Z,50
2017-02-06T09:04:26.346Z,50
2017-02-06T09:05:26.518Z,50
2017-02-06T09:06:26.942Z,50
2017-02-06T09:07:26.579Z,50
2017-02-06T09:08:26.607Z,50
2017-02-06T09:09:27.307Z,45
2017-02-06T09:10:26.662Z,45
2017-02-06T09:11:27.081Z,40
2017-02-06T09:12:26.715Z,45
2017-02-06T09:13:26.359Z,45
2017-02-06T09:14:27.019Z,45
2017-02-06T09:15:26.009Z,45
2017-02-06T09:16:26.433Z,45
2017-02-06T09:17:27.254Z,45
2017-02-06T09:18:27.671Z,45
2017-02-06T09:19:26.754Z,45
2017-02-06T09:20:27.973Z,45
2017-02-06T09:21:26.957Z,40
2017-02-06T09:22:27.006Z,40
2017-02-06T09:23:27.018Z,40
2017-02-06T09:24:27.042Z,40
2017-02-06T09:25:26.925Z,40
2017-02-06T09:26:27.099Z,40
2017-02-06T09:27:26.734Z,40
2017-02-06T09:28:27.950Z,35
2017-02-06T09:29:27.570Z,30
2017-02-06T09:30:28.300Z,30
2017-02-06T09:31:26.845Z,30
2017-02-06T09:32:27.665Z,30
2017-02-06T09:33:27.686Z,25
2017-02-06T09:34:27.318Z,20
2017-02-06T09:35:27.991Z,15
2017-02-06T09:36:27.825Z,10
2017-02-06T09:37:28.193Z,10
2017-02-06T09:38:28.222Z,10
2017-02-06T09:39:27.454Z,10
2017-02-06T09:40:28.125Z,10
2017-02-06T09:41:27.115Z,10
2017-02-06T09:42:27.940Z,10
2017-02-06T09:43:27.961Z,10
2017-02-06T09:44:27.990Z,10
2017-02-06T09:45:28.154Z,10
2017-02-06T09:46:28.439Z,10
2017-02-06T09:47:28.468Z,10
2017-02-06T09:48:27.711Z,10
2017-02-06T09:49:27.733Z,10
2017-02-06T09:50:28.009Z,10
2017-02-06T09:51:28.185Z,10
2017-02-06T09:52:27.420Z,10
2017-02-06T09:53:28.231Z,10
2017-02-06T09:54:27.865Z,10
2017-02-06T09:55:28.546Z,10
2017-02-06T09:56:27.530Z,15
2017-02-06T09:57:28.354Z,15
2017-02-06T09:58:27.984Z,15
2017-02-06T09:59:28.793Z,15
2017-02-06T10:00:29.333Z,15
2017-02-06T10:01:28.056Z,15
2017-02-06T10:02:28.086Z,15
2017-02-06T10:03:27.724Z,15
2017-02-06T10:04:28.144Z,15
2017-02-06T10:05:28.021Z,15
2017-02-06T10:06:28.981Z,15
2017-02-06T10:07:28.621Z,15
2017-02-06T10:08:27.855Z,20
2017-02-06T10:09:28.672Z,20
2017-02-06T10:10:29.020Z,20
2017-02-06T10:11:28.725Z,20
2017-02-06T10:12:28.401Z,20
2017-02-06T10:13:28.796Z,20
2017-02-06T10:14:28.414Z,20
2017-02-06T10:15:28.293Z,20
2017-02-06T10:16:29.260Z,25
2017-02-06T10:17:29.293Z,25
2017-02-06T10:18:28.528Z,25
2017-02-06T10:19:28.149Z,25
2017-02-06T10:20:28.838Z,30
2017-02-06T10:21:29.411Z,30
2017-02-06T10:22:29.029Z,30
2017-02-06T10:23:28.259Z,30
2017-02-06T10:24:28.292Z,30
2017-02-06T10:25:28.643Z,20
2017-02-06T10:26:29.435Z,20
2017-02-06T10:27:29.163Z,20
2017-02-06T10:28:29.204Z,20
2017-02-06T10:29:28.828Z,20
2017-02-06T10:30:28.468Z,20
2017-02-06T10:31:29.478Z,25
2017-02-06T10:32:29.315Z,25
2017-02-06T10:33:28.935Z,30
2017-02-06T10:34:29.751Z,30
2017-02-06T10:35:29.790Z,30
2017-02-06T10:36:30.114Z,25
2017-02-06T10:37:29.431Z,25
2017-02-06T10:38:29.067Z,20
2017-02-06T10:39:29.101Z,20
2017-02-06T10:40:29.129Z,20
2017-02-06T10:41:29.449Z,20
2017-02-06T10:42:28.778Z,20
2017-02-06T10:43:28.815Z,20
2017-02-06T10:44:29.239Z,20
2017-02-06T10:45:29.268Z,20
2017-02-06T10:46:29.990Z,20
2017-02-06T10:47:29.324Z,20
2017-02-06T10:48:28.963Z,25
2017-02-06T10:49:29.774Z,25
2017-02-06T10:50:29.004Z,25
2017-02-06T10:51:30.428Z,25
2017-02-06T10:52:29.057Z,25
2017-02-06T10:53:29.488Z,30
2017-02-06T10:54:29.912Z,30
2017-02-06T10:55:29.935Z,30
2017-02-06T10:56:29.565Z,30
2017-02-06T10:57:30.676Z,35
2017-02-06T10:58:29.614Z,40
2017-02-06T10:59:29.255Z,50
2017-02-06T11:00:29.671Z,50
2017-02-06T11:01:29.695Z,55
2017-02-06T11:02:30.030Z,60
2017-02-06T11:03:29.758Z,55
2017-02-06T11:04:29.776Z,60
2017-02-06T11:05:30.591Z,60
2017-02-06T11:06:30.258Z,55
2017-02-06T11:07:30.116Z,60
2017-02-06T11:08:30.289Z,55
2017-02-06T11:09:30.314Z,55
2017-02-06T11:10:30.346Z,55
2017-02-06T11:11:30.371Z,55
2017-02-06T11:12:29.508Z,60
2017-02-06T11:13:30.423Z,55
2017-02-06T11:14:30.057Z,60
2017-02-06T11:15:30.874Z,60
2017-02-06T11:16:30.111Z,60
2017-02-06T11:17:30.836Z,60
2017-02-06T11:18:29.773Z,60
2017-02-06T11:19:29.797Z,65
2017-02-06T11:20:29.830Z,60
2017-02-06T11:21:30.655Z,60
2017-02-06T11:22:30.576Z,65
2017-02-06T11:23:30.701Z,65
2017-02-06T11:24:31.126Z,70
2017-02-06T11:25:30.366Z,75
2017-02-06T11:26:30.378Z,75
2017-02-06T11:27:30.714Z,80
2017-02-06T11:28:30.840Z,80
2017-02-06T11:29:30.481Z,85
2017-02-06T11:30:30.901Z,85
2017-02-06T11:31:30.133Z,80
2017-02-06T11:32:30.463Z,80
2017-02-06T11:33:30.588Z,35
2017-02-06T11:34:31.022Z,55
2017-02-06T11:35:31.438Z,25
2017-02-06T11:36:31.070Z,75
2017-02-06T11:37:31.003Z,75
2017-02-06T11:38:30.724Z,75
2017-02-06T11:39:30.755Z,65
2017-02-06T11:40:31.181Z,30
2017-02-06T11:41:31.213Z,80
2017-02-06T11:42:31.936Z,40
2017-02-06T11:43:31.272Z,30
2017-02-06T11:44:30.508Z,35
2017-02-06T11:45:30.924Z,30
2017-02-06T11:46:31.747Z,30
2017-02-06T11:47:31.679Z,30
2017-02-06T11:48:31.007Z,30
2017-02-06T11:49:30.635Z,30
2017-02-06T11:50:31.461Z,30
2017-02-06T11:51:31.100Z,30
2017-02-06T11:52:31.424Z,35
2017-02-06T11:53:30.672Z,35
2017-02-06T11:54:31.576Z,40
2017-02-06T11:55:31.601Z,50
2017-02-06T11:56:32.035Z,75
2017-02-06T11:57:31.663Z,45
2017-02-06T11:58:31.229Z,45
2017-02-06T11:59:31.320Z,50
2017-02-06T12:00:30.964Z,75
2017-02-06T12:01:31.389Z,100
2017-02-06T12:02:31.418Z,75
2017-02-06T12:03:31.692Z,80
2017-02-06T12:04:31.862Z,90
2017-02-06T12:05:31.888Z,90
2017-02-06T12:06:32.325Z,110
2017-02-06T12:07:32.347Z,85
2017-02-06T12:08:31.887Z,90
2017-02-06T12:09:32.001Z,65
2017-02-06T12:10:31.684Z,65
2017-02-06T12:11:32.057Z,40
2017-02-06T12:12:31.694Z,40
2017-02-06T12:13:32.023Z,40
2017-02-06T12:14:31.351Z,50
2017-02-06T12:15:31.786Z,85
2017-02-06T12:16:32.209Z,80
2017-02-06T12:17:31.842Z,65
2017-02-06T12:18:32.959Z,60
2017-02-06T12:19:31.499Z,55
2017-02-06T12:20:32.319Z,50
2017-02-06T12:21:32.349Z,40
2017-02-06T12:22:32.389Z,40
2017-02-06T12:23:32.711Z,50
2017-02-06T12:24:32.834Z,45
2017-02-06T12:25:31.279Z,45
2017-02-06T12:26:31.704Z,50
2017-02-06T12:27:32.538Z,45
2017-02-06T12:28:32.850Z,50
2017-02-06T12:29:32.191Z,55
2017-02-06T12:30:32.615Z,60
2017-02-06T12:31:32.243Z,50
2017-02-06T12:32:32.289Z,50
2017-02-06T12:33:32.501Z,50
2017-02-06T12:34:33.122Z,50
2017-02-06T12:35:32.759Z,45
2017-02-06T12:36:32.388Z,45
2017-02-06T12:37:32.017Z,45
2017-02-06T12:38:33.540Z,45
2017-02-06T12:39:32.478Z,40
2017-02-06T12:40:33.290Z,35
2017-02-06T12:41:32.935Z,35
2017-02-06T12:42:32.561Z,35
2017-02-06T12:43:32.102Z,35
2017-02-06T12:44:33.010Z,35
2017-02-06T12:45:33.047Z,40
2017-02-06T12:46:32.680Z,45
2017-02-06T12:47:33.153Z,40
2017-02-06T12:48:33.425Z,40
2017-02-06T12:49:33.170Z,35
2017-02-06T12:50:32.391Z,35
2017-02-06T12:51:32.823Z,30
2017-02-06T12:52:33.651Z,30
2017-02-06T12:53:33.573Z,30
2017-02-06T12:54:33.309Z,30
2017-02-06T12:55:32.938Z,25
2017-02-06T12:56:32.568Z,25
2017-02-06T12:57:32.996Z,25
2017-02-06T12:58:34.120Z,25
2017-02-06T12:59:33.846Z,25
2017-02-06T13:00:33.482Z,20
2017-02-06T13:01:33.108Z,20
2017-02-06T13:02:33.136Z,20
2017-02-06T13:03:33.772Z,20
2017-02-06T13:04:33.592Z,20
2017-02-06T13:05:33.623Z,20
2017-02-06T13:06:33.259Z,20
2017-02-06T13:07:33.683Z,20
2017-02-06T13:08:34.011Z,20
2017-02-06T13:09:33.650Z,20
2017-02-06T13:10:33.368Z,20
2017-02-06T13:11:32.602Z,20
2017-02-06T13:12:33.455Z,20
2017-02-06T13:13:33.067Z,20
2017-02-06T13:14:33.400Z,20
2017-02-06T13:15:33.132Z,20
2017-02-06T13:16:33.941Z,20
2017-02-06T13:17:33.974Z,20
2017-02-06T13:18:34.007Z,20
2017-02-06T13:19:34.720Z,20
2017-02-06T13:20:33.653Z,20
2017-02-06T13:21:34.477Z,20
2017-02-06T13:22:33.326Z,20
2017-02-06T13:23:34.179Z,15
2017-02-06T13:24:34.767Z,15
2017-02-06T13:25:34.193Z,15
2017-02-06T13:26:33.824Z,15
2017-02-06T13:27:34.256Z,15
2017-02-06T13:28:34.281Z,15
2017-02-06T13:29:34.640Z,15
2017-02-06T13:30:33.587Z,15
2017-02-06T13:31:34.364Z,15
2017-02-06T13:32:34.396Z,15
2017-02-06T13:33:33.629Z,15
2017-02-06T13:34:33.563Z,15
2017-02-06T13:35:34.488Z,15
2017-02-06T13:36:34.118Z,15
2017-02-06T13:37:34.540Z,15
2017-02-06T13:38:34.971Z,15
2017-02-06T13:39:35.583Z,15
2017-02-06T13:40:34.235Z,15
2017-02-06T13:41:33.847Z,15
2017-02-06T13:42:34.675Z,15
2017-02-06T13:43:34.712Z,15
2017-02-06T13:44:34.637Z,15
2017-02-06T13:45:35.158Z,15
2017-02-06T13:46:35.187Z,15
2017-02-06T13:47:34.819Z,15
2017-02-06T13:48:34.453Z,15
2017-02-06T13:49:34.777Z,15
2017-02-06T13:50:34.904Z,15
2017-02-06T13:51:34.938Z,20
2017-02-06T13:52:35.358Z,20
2017-02-06T13:53:34.991Z,20
2017-02-06T13:54:35.320Z,20
2017-02-06T13:55:35.434Z,20
2017-02-06T13:56:35.107Z,20
2017-02-06T13:57:35.107Z,20
2017-02-06T13:58:35.535Z,20
2017-02-06T13:59:35.470Z,20
2017-02-06T14:00:35.088Z,20
2017-02-06T14:01:35.222Z,20
2017-02-06T14:02:35.266Z,20
2017-02-06T14:03:34.883Z,15
2017-02-06T14:04:34.907Z,15
2017-02-06T14:05:35.836Z,15
2017-02-06T14:06:35.757Z,15
2017-02-06T14:07:35.397Z,15
2017-02-06T14:08:35.418Z,15
2017-02-06T14:09:35.439Z,20
2017-02-06T14:10:35.325Z,20
2017-02-06T14:11:35.928Z,20
2017-02-06T14:12:35.125Z,20
2017-02-06T14:13:35.558Z,20
2017-02-06T14:14:35.579Z,20
2017-02-06T14:15:35.864Z,20
2017-02-06T14:16:35.240Z,20
2017-02-06T14:17:35.679Z,20
2017-02-06T14:18:35.301Z,20
2017-02-06T14:19:34.934Z,20
2017-02-06T14:20:36.259Z,20
2017-02-06T14:21:36.180Z,20
2017-02-06T14:22:35.016Z,20
2017-02-06T14:23:35.840Z,20
2017-02-06T14:24:35.862Z,20
2017-02-06T14:25:36.198Z,20
2017-02-06T14:26:36.315Z,20
2017-02-06T14:27:35.944Z,20
2017-02-06T14:28:35.581Z,20
2017-02-06T14:29:35.657Z,20
2017-02-06T14:30:35.589Z,20
2017-02-06T14:31:36.015Z,20
2017-02-06T14:32:35.295Z,15